Terminal Aerodrome Forecast
Issued by NWS

Home | Current Version | Previous Version | Text Only | Print | Product List | Glossary On
Versions: 1 2 3 4 5 6 7 8 9 10 11
042
FTUS46 KLOX 062347
TAFSBA
TAF
KSBA 062347Z 0700/0724 27007KT P6SM SKC
     FM070200 VRB03KT P6SM SKC
     FM072100 27008KT P6SM SKC=

USA.gov is the U.S. government's official web portal to all federal, state and local government web resources and services.